sensor_id;sensor_type;location;lat;lon;timestamp;P1;durP1;ratioP1;P2;durP2;ratioP2
2558;SDS011;1289;53.488;10.006;2022-12-07T02:45:42;9.63;;;7.20;;
2558;SDS011;1289;53.488;10.006;2022-12-07T02:48:14;9.57;;;7.57;;
2558;SDS011;1289;53.488;10.006;2022-12-07T02:50:44;10.17;;;7.43;;
2558;SDS011;1289;53.488;10.006;2022-12-07T02:55:56;11.10;;;7.60;;
2558;SDS011;1289;53.488;10.006;2022-12-07T02:58:24;9.93;;;8.07;;
2558;SDS011;1289;53.488;10.006;2022-12-07T03:01:02;9.93;;;7.63;;
2558;SDS011;1289;53.488;10.006;2022-12-07T03:03:32;8.20;;;7.10;;
2558;SDS011;1289;53.488;10.006;2022-12-07T03:06:02;8.60;;;7.10;;
2558;SDS011;1289;53.488;10.006;2022-12-07T03:08:38;7.50;;;6.70;;
2558;SDS011;1289;53.488;10.006;2022-12-07T03:11:12;6.90;;;5.93;;
2558;SDS011;1289;53.488;10.006;2022-12-07T03:13:41;9.83;;;6.80;;
2558;SDS011;1289;53.488;10.006;2022-12-07T03:16:14;7.17;;;6.27;;
2558;SDS011;1289;53.488;10.006;2022-12-07T03:18:43;10.30;;;6.67;;
2558;SDS011;1289;53.488;10.006;2022-12-07T03:21:13;9.97;;;6.90;;
2558;SDS011;1289;53.488;10.006;2022-12-07T03:23:41;9.97;;;6.27;;
2558;SDS011;1289;53.488;10.006;2022-12-07T03:26:11;6.03;;;5.43;;
2558;SDS011;1289;53.488;10.006;2022-12-07T03:28:39;9.07;;;6.27;;
2558;SDS011;1289;53.488;10.006;2022-12-07T03:31:10;6.67;;;5.17;;
2558;SDS011;1289;53.488;10.006;2022-12-07T03:33:42;6.63;;;5.93;;
2558;SDS011;1289;53.488;10.006;2022-12-07T03:36:14;8.03;;;5.73;;
2558;SDS011;1289;53.488;10.006;2022-12-07T03:38:46;6.10;;;5.50;;
2558;SDS011;1289;53.488;10.006;2022-12-07T03:41:16;5.37;;;4.87;;
2558;SDS011;1289;53.488;10.006;2022-12-07T03:43:45;6.10;;;5.00;;
2558;SDS011;1289;53.488;10.006;2022-12-07T03:46:15;7.00;;;5.20;;
2558;SDS011;1289;53.488;10.006;2022-12-07T03:48:46;9.53;;;8.13;;
2558;SDS011;1289;53.488;10.006;2022-12-07T03:51:20;5.60;;;5.00;;
2558;SDS011;1289;53.488;10.006;2022-12-07T03:53:48;7.47;;;5.50;;
2558;SDS011;1289;53.488;10.006;2022-12-07T03:56:18;5.10;;;4.60;;
2558;SDS011;1289;53.488;10.006;2022-12-07T03:58:46;7.80;;;4.90;;
2558;SDS011;1289;53.488;10.006;2022-12-07T04:01:14;6.67;;;4.87;;
2558;SDS011;1289;53.488;10.006;2022-12-07T04:03:41;12.40;;;5.50;;
2558;SDS011;1289;53.488;10.006;2022-12-07T04:06:07;5.37;;;4.87;;
2558;SDS011;1289;53.488;10.006;2022-12-07T04:08:34;6.60;;;5.27;;
2558;SDS011;1289;53.488;10.006;2022-12-07T04:11:01;8.97;;;5.10;;
2558;SDS011;1289;53.488;10.006;2022-12-07T04:13:27;5.90;;;5.30;;
2558;SDS011;1289;53.488;10.006;2022-12-07T04:15:54;7.33;;;5.00;;
2558;SDS011;1289;53.488;10.006;2022-12-07T04:18:22;7.43;;;4.80;;
2558;SDS011;1289;53.488;10.006;2022-12-07T04:20:48;7.80;;;4.90;;
2558;SDS011;1289;53.488;10.006;2022-12-07T04:23:15;6.63;;;4.63;;
2558;SDS011;1289;53.488;10.006;2022-12-07T04:25:41;5.10;;;4.50;;
2558;SDS011;1289;53.488;10.006;2022-12-07T04:28:08;4.90;;;4.50;;
2558;SDS011;1289;53.488;10.006;2022-12-07T04:30:34;4.83;;;4.43;;
2558;SDS011;1289;53.488;10.006;2022-12-07T04:33:01;4.70;;;4.10;;
2558;SDS011;1289;53.488;10.006;2022-12-07T04:35:29;6.17;;;4.70;;
2558;SDS011;1289;53.488;10.006;2022-12-07T04:37:56;5.10;;;4.40;;
2558;SDS011;1289;53.488;10.006;2022-12-07T04:40:22;4.57;;;4.17;;
2558;SDS011;1289;53.488;10.006;2022-12-07T04:42:49;4.53;;;3.73;;
2558;SDS011;1289;53.488;10.006;2022-12-07T04:45:16;4.20;;;3.90;;
2558;SDS011;1289;53.488;10.006;2022-12-07T04:47:42;8.30;;;4.80;;
2558;SDS011;1289;53.488;10.006;2022-12-07T04:50:09;5.40;;;4.70;;
2558;SDS011;1289;53.488;10.006;2022-12-07T04:52:37;4.70;;;3.87;;
2558;SDS011;1289;53.488;10.006;2022-12-07T04:55:04;4.70;;;4.30;;
2558;SDS011;1289;53.488;10.006;2022-12-07T04:57:31;6.13;;;4.60;;
2558;SDS011;1289;53.488;10.006;2022-12-07T04:59:57;5.47;;;4.20;;
2558;SDS011;1289;53.488;10.006;2022-12-07T05:02:24;4.03;;;3.70;;
2558;SDS011;1289;53.488;10.006;2022-12-07T05:04:50;5.43;;;4.23;;
2558;SDS011;1289;53.488;10.006;2022-12-07T05:07:17;5.97;;;3.80;;
2558;SDS011;1289;53.488;10.006;2022-12-07T05:09:45;4.83;;;4.43;;
2558;SDS011;1289;53.488;10.006;2022-12-07T05:12:11;7.33;;;4.60;;
2558;SDS011;1289;53.488;10.006;2022-12-07T05:14:38;5.07;;;4.60;;
2558;SDS011;1289;53.488;10.006;2022-12-07T05:17:04;5.40;;;4.90;;
2558;SDS011;1289;53.488;10.006;2022-12-07T05:19:31;5.93;;;5.33;;
2558;SDS011;1289;53.488;10.006;2022-12-07T05:21:57;7.53;;;5.80;;
2558;SDS011;1289;53.488;10.006;2022-12-07T05:24:24;5.73;;;4.67;;
2558;SDS011;1289;53.488;10.006;2022-12-07T05:26:52;5.57;;;5.07;;
2558;SDS011;1289;53.488;10.006;2022-12-07T05:29:19;6.40;;;5.47;;
2558;SDS011;1289;53.488;10.006;2022-12-07T05:31:45;5.47;;;4.93;;
2558;SDS011;1289;53.488;10.006;2022-12-07T05:34:12;5.53;;;5.03;;
2558;SDS011;1289;53.488;10.006;2022-12-07T05:36:38;5.03;;;4.60;;
2558;SDS011;1289;53.488;10.006;2022-12-07T05:39:05;6.33;;;5.30;;
2558;SDS011;1289;53.488;10.006;2022-12-07T05:41:32;5.50;;;5.00;;
2558;SDS011;1289;53.488;10.006;2022-12-07T05:44:17;7.57;;;4.43;;
2558;SDS011;1289;53.488;10.006;2022-12-07T05:46:44;7.30;;;5.00;;
2558;SDS011;1289;53.488;10.006;2022-12-07T05:49:10;4.73;;;4.33;;
2558;SDS011;1289;53.488;10.006;2022-12-07T05:51:37;4.67;;;4.27;;
2558;SDS011;1289;53.488;10.006;2022-12-07T05:54:04;5.40;;;4.90;;
2558;SDS011;1289;53.488;10.006;2022-12-07T05:56:30;5.13;;;4.73;;
2558;SDS011;1289;53.488;10.006;2022-12-07T05:58:57;5.53;;;5.00;;
2558;SDS011;1289;53.488;10.006;2022-12-07T06:01:42;7.50;;;4.83;;
2558;SDS011;1289;53.488;10.006;2022-12-07T06:04:09;6.50;;;5.90;;
2558;SDS011;1289;53.488;10.006;2022-12-07T06:06:35;6.50;;;5.73;;
2558;SDS011;1289;53.488;10.006;2022-12-07T06:09:02;7.77;;;6.37;;
2558;SDS011;1289;53.488;10.006;2022-12-07T06:11:29;6.47;;;5.87;;
2558;SDS011;1289;53.488;10.006;2022-12-07T06:14:13;6.53;;;5.80;;
2558;SDS011;1289;53.488;10.006;2022-12-07T06:16:40;6.30;;;5.20;;
2558;SDS011;1289;53.488;10.006;2022-12-07T06:19:08;5.33;;;4.83;;
2558;SDS011;1289;53.488;10.006;2022-12-07T06:21:35;5.03;;;4.17;;
2558;SDS011;1289;53.488;10.006;2022-12-07T06:24:02;6.63;;;5.00;;
2558;SDS011;1289;53.488;10.006;2022-12-07T06:26:29;6.80;;;3.70;;
2558;SDS011;1289;53.488;10.006;2022-12-07T06:28:55;5.83;;;4.40;;
2558;SDS011;1289;53.488;10.006;2022-12-07T06:31:22;4.40;;;4.10;;
2558;SDS011;1289;53.488;10.006;2022-12-07T06:33:48;5.07;;;4.60;;
2558;SDS011;1289;53.488;10.006;2022-12-07T06:36:16;6.20;;;4.70;;
2558;SDS011;1289;53.488;10.006;2022-12-07T06:38:43;5.13;;;3.97;;
2558;SDS011;1289;53.488;10.006;2022-12-07T06:41:10;6.03;;;4.10;;
2558;SDS011;1289;53.488;10.006;2022-12-07T06:43:36;4.30;;;3.90;;
2558;SDS011;1289;53.488;10.006;2022-12-07T06:46:03;6.00;;;4.60;;
2558;SDS011;1289;53.488;10.006;2022-12-07T06:48:30;4.43;;;3.93;;
2558;SDS011;1289;53.488;10.006;2022-12-07T06:50:56;7.30;;;4.60;;
2558;SDS011;1289;53.488;10.006;2022-12-07T06:53:25;4.80;;;4.30;;
2558;SDS011;1289;53.488;10.006;2022-12-07T06:55:51;4.47;;;4.07;;
2558;SDS011;1289;53.488;10.006;2022-12-07T06:58:18;5.60;;;4.63;;
2558;SDS011;1289;53.488;10.006;2022-12-07T07:00:44;4.30;;;3.93;;
2558;SDS011;1289;53.488;10.006;2022-12-07T07:03:11;5.23;;;4.70;;
2558;SDS011;1289;53.488;10.006;2022-12-07T07:05:38;4.53;;;4.13;;
2558;SDS011;1289;53.488;10.006;2022-12-07T07:08:04;4.13;;;3.80;;
2558;SDS011;1289;53.488;10.006;2022-12-07T07:10:32;5.07;;;3.30;;
2558;SDS011;1289;53.488;10.006;2022-12-07T07:12:59;4.43;;;3.73;;
2558;SDS011;1289;53.488;10.006;2022-12-07T07:15:26;3.90;;;3.60;;
2558;SDS011;1289;53.488;10.006;2022-12-07T07:17:52;4.20;;;3.90;;
2558;SDS011;1289;53.488;10.006;2022-12-07T07:20:19;4.53;;;3.40;;
2558;SDS011;1289;53.488;10.006;2022-12-07T07:22:45;4.90;;;3.87;;
2558;SDS011;1289;53.488;10.006;2022-12-07T07:25:12;4.50;;;3.37;;
2558;SDS011;1289;53.488;10.006;2022-12-07T07:27:40;6.17;;;4.00;;
2558;SDS011;1289;53.488;10.006;2022-12-07T07:30:07;4.00;;;3.70;;
2558;SDS011;1289;53.488;10.006;2022-12-07T07:32:34;5.07;;;4.37;;
2558;SDS011;1289;53.488;10.006;2022-12-07T07:35:01;3.77;;;3.47;;
2558;SDS011;1289;53.488;10.006;2022-12-07T07:37:27;5.83;;;4.10;;
2558;SDS011;1289;53.488;10.006;2022-12-07T07:39:54;4.23;;;3.93;;
2558;SDS011;1289;53.488;10.006;2022-12-07T07:42:21;5.93;;;3.50;;
2558;SDS011;1289;53.488;10.006;2022-12-07T07:44:49;3.80;;;3.30;;
2558;SDS011;1289;53.488;10.006;2022-12-07T07:47:16;4.10;;;3.70;;
2558;SDS011;1289;53.488;10.006;2022-12-07T07:49:42;5.63;;;4.20;;
2558;SDS011;1289;53.488;10.006;2022-12-07T07:52:09;4.23;;;3.93;;
2558;SDS011;1289;53.488;10.006;2022-12-07T07:54:36;12.00;;;5.20;;
2558;SDS011;1289;53.488;10.006;2022-12-07T07:57:03;3.90;;;3.60;;
2558;SDS011;1289;53.488;10.006;2022-12-07T07:59:29;6.73;;;3.77;;
2558;SDS011;1289;53.488;10.006;2022-12-07T08:01:57;4.37;;;3.97;;
2558;SDS011;1289;53.488;10.006;2022-12-07T08:04:24;4.07;;;3.50;;
2558;SDS011;1289;53.488;10.006;2022-12-07T08:06:51;7.00;;;3.50;;
2558;SDS011;1289;53.488;10.006;2022-12-07T08:09:17;4.73;;;3.60;;
2558;SDS011;1289;53.488;10.006;2022-12-07T08:11:44;4.10;;;3.60;;
2558;SDS011;1289;53.488;10.006;2022-12-07T08:14:11;5.10;;;3.93;;
2558;SDS011;1289;53.488;10.006;2022-12-07T08:16:38;4.90;;;4.23;;
2558;SDS011;1289;53.488;10.006;2022-12-07T08:19:06;4.00;;;3.70;;
2558;SDS011;1289;53.488;10.006;2022-12-07T08:21:32;3.97;;;3.67;;
2558;SDS011;1289;53.488;10.006;2022-12-07T08:23:59;4.20;;;3.87;;
2558;SDS011;1289;53.488;10.006;2022-12-07T08:26:25;3.77;;;3.40;;
2558;SDS011;1289;53.488;10.006;2022-12-07T08:28:52;4.93;;;3.83;;
2558;SDS011;1289;53.488;10.006;2022-12-07T08:31:19;4.37;;;3.40;;
2558;SDS011;1289;53.488;10.006;2022-12-07T08:33:46;4.93;;;3.47;;
2558;SDS011;1289;53.488;10.006;2022-12-07T08:36:14;9.70;;;3.63;;
2558;SDS011;1289;53.488;10.006;2022-12-07T08:38:41;3.33;;;3.03;;
2558;SDS011;1289;53.488;10.006;2022-12-07T08:41:08;3.83;;;3.63;;
2558;SDS011;1289;53.488;10.006;2022-12-07T08:43:35;3.47;;;3.17;;
2558;SDS011;1289;53.488;10.006;2022-12-07T08:46:04;5.83;;;4.30;;
2558;SDS011;1289;53.488;10.006;2022-12-07T08:48:36;8.17;;;3.63;;
2558;SDS011;1289;53.488;10.006;2022-12-07T08:51:05;4.77;;;3.63;;
2558;SDS011;1289;53.488;10.006;2022-12-07T08:53:33;4.10;;;3.80;;
2558;SDS011;1289;53.488;10.006;2022-12-07T08:56:01;4.70;;;3.60;;
2558;SDS011;1289;53.488;10.006;2022-12-07T08:58:27;4.50;;;3.50;;
2558;SDS011;1289;53.488;10.006;2022-12-07T09:00:54;6.93;;;3.57;;
2558;SDS011;1289;53.488;10.006;2022-12-07T09:03:21;8.60;;;3.60;;
2558;SDS011;1289;53.488;10.006;2022-12-07T09:05:47;5.10;;;3.80;;
2558;SDS011;1289;53.488;10.006;2022-12-07T09:08:14;4.83;;;4.03;;
2558;SDS011;1289;53.488;10.006;2022-12-07T09:10:42;3.97;;;3.40;;
2558;SDS011;1289;53.488;10.006;2022-12-07T09:13:08;6.00;;;3.90;;
2558;SDS011;1289;53.488;10.006;2022-12-07T09:15:35;6.43;;;4.60;;
2558;SDS011;1289;53.488;10.006;2022-12-07T09:18:01;6.23;;;3.60;;
2558;SDS011;1289;53.488;10.006;2022-12-07T09:20:28;6.33;;;4.33;;
2558;SDS011;1289;53.488;10.006;2022-12-07T09:22:55;7.10;;;5.97;;
2558;SDS011;1289;53.488;10.006;2022-12-07T09:25:21;4.17;;;3.83;;
2558;SDS011;1289;53.488;10.006;2022-12-07T09:27:51;5.57;;;3.60;;
2558;SDS011;1289;53.488;10.006;2022-12-07T09:30:21;6.90;;;4.20;;
2558;SDS011;1289;53.488;10.006;2022-12-07T09:32:48;6.77;;;3.90;;
2558;SDS011;1289;53.488;10.006;2022-12-07T09:35:14;6.27;;;4.10;;
2558;SDS011;1289;53.488;10.006;2022-12-07T09:37:41;3.43;;;3.07;;
2558;SDS011;1289;53.488;10.006;2022-12-07T09:40:08;4.20;;;3.70;;
2558;SDS011;1289;53.488;10.006;2022-12-07T09:42:35;3.90;;;3.00;;
2558;SDS011;1289;53.488;10.006;2022-12-07T09:45:06;4.60;;;3.10;;
2558;SDS011;1289;53.488;10.006;2022-12-07T09:47:37;3.93;;;3.53;;
2558;SDS011;1289;53.488;10.006;2022-12-07T09:50:04;3.43;;;3.13;;
2558;SDS011;1289;53.488;10.006;2022-12-07T09:52:32;4.43;;;3.60;;
2558;SDS011;1289;53.488;10.006;2022-12-07T09:54:59;4.23;;;3.20;;
2558;SDS011;1289;53.488;10.006;2022-12-07T09:57:27;5.10;;;3.47;;
2558;SDS011;1289;53.488;10.006;2022-12-07T09:59:55;3.80;;;3.30;;
2558;SDS011;1289;53.488;10.006;2022-12-07T10:02:33;4.20;;;3.83;;
2558;SDS011;1289;53.488;10.006;2022-12-07T10:05:03;7.93;;;4.50;;
2558;SDS011;1289;53.488;10.006;2022-12-07T10:07:31;5.37;;;4.07;;
2558;SDS011;1289;53.488;10.006;2022-12-07T10:09:57;4.00;;;3.70;;
2558;SDS011;1289;53.488;10.006;2022-12-07T10:12:24;5.60;;;3.80;;
2558;SDS011;1289;53.488;10.006;2022-12-07T10:14:54;4.23;;;3.83;;
2558;SDS011;1289;53.488;10.006;2022-12-07T10:17:34;5.07;;;4.10;;
2558;SDS011;1289;53.488;10.006;2022-12-07T10:20:20;3.40;;;2.90;;
2558;SDS011;1289;53.488;10.006;2022-12-07T10:22:56;3.00;;;2.77;;
2558;SDS011;1289;53.488;10.006;2022-12-07T10:25:25;3.00;;;2.80;;
2558;SDS011;1289;53.488;10.006;2022-12-07T10:28:00;6.30;;;3.20;;
2558;SDS011;1289;53.488;10.006;2022-12-07T10:30:27;2.90;;;2.70;;
2558;SDS011;1289;53.488;10.006;2022-12-07T10:32:55;3.50;;;3.20;;
2558;SDS011;1289;53.488;10.006;2022-12-07T10:35:24;3.23;;;2.93;;
2558;SDS011;1289;53.488;10.006;2022-12-07T10:37:51;2.93;;;2.73;;
2558;SDS011;1289;53.488;10.006;2022-12-07T10:40:26;3.57;;;2.80;;
2558;SDS011;1289;53.488;10.006;2022-12-07T10:43:05;6.30;;;2.87;;
2558;SDS011;1289;53.488;10.006;2022-12-07T10:45:54;3.10;;;2.80;;
2558;SDS011;1289;53.488;10.006;2022-12-07T10:48:34;3.03;;;2.83;;
2558;SDS011;1289;53.488;10.006;2022-12-07T10:51:05;3.20;;;3.00;;
2558;SDS011;1289;53.488;10.006;2022-12-07T10:53:44;3.20;;;2.90;;
2558;SDS011;1289;53.488;10.006;2022-12-07T10:59:31;4.17;;;3.87;;
2558;SDS011;1289;53.488;10.006;2022-12-07T11:02:10;4.90;;;3.07;;
2558;SDS011;1289;53.488;10.006;2022-12-07T11:04:52;3.20;;;2.90;;
2558;SDS011;1289;53.488;10.006;2022-12-07T11:07:28;3.23;;;3.03;;
2558;SDS011;1289;53.488;10.006;2022-12-07T11:10:02;3.60;;;2.97;;
2558;SDS011;1289;53.488;10.006;2022-12-07T11:12:36;5.10;;;3.07;;
2558;SDS011;1289;53.488;10.006;2022-12-07T11:15:13;5.10;;;3.13;;
2558;SDS011;1289;53.488;10.006;2022-12-07T11:17:45;7.90;;;3.20;;
2558;SDS011;1289;53.488;10.006;2022-12-07T11:20:23;4.63;;;3.03;;
2558;SDS011;1289;53.488;10.006;2022-12-07T11:22:57;3.13;;;2.87;;
2558;SDS011;1289;53.488;10.006;2022-12-07T11:25:30;5.60;;;3.80;;
2558;SDS011;1289;53.488;10.006;2022-12-07T11:28:03;3.93;;;3.60;;
2558;SDS011;1289;53.488;10.006;2022-12-07T11:30:41;7.27;;;3.50;;
2558;SDS011;1289;53.488;10.006;2022-12-07T11:33:13;3.90;;;3.60;;
2558;SDS011;1289;53.488;10.006;2022-12-07T11:35:48;6.30;;;3.37;;
2558;SDS011;1289;53.488;10.006;2022-12-07T11:38:20;11.53;;;4.43;;
2558;SDS011;1289;53.488;10.006;2022-12-07T11:40:48;6.97;;;3.67;;
2558;SDS011;1289;53.488;10.006;2022-12-07T11:43:19;5.60;;;4.00;;
2558;SDS011;1289;53.488;10.006;2022-12-07T11:45:50;5.77;;;4.30;;
2558;SDS011;1289;53.488;10.006;2022-12-07T11:48:22;7.30;;;4.27;;
2558;SDS011;1289;53.488;10.006;2022-12-07T11:50:52;5.23;;;3.53;;
2558;SDS011;1289;53.488;10.006;2022-12-07T11:53:22;4.40;;;3.30;;
2558;SDS011;1289;53.488;10.006;2022-12-07T11:55:52;4.00;;;3.33;;
2558;SDS011;1289;53.488;10.006;2022-12-07T11:58:35;8.33;;;3.37;;
2558;SDS011;1289;53.488;10.006;2022-12-07T12:01:08;4.73;;;3.40;;
2558;SDS011;1289;53.488;10.006;2022-12-07T12:03:42;8.37;;;3.40;;
2558;SDS011;1289;53.488;10.006;2022-12-07T12:06:12;4.10;;;3.03;;
2558;SDS011;1289;53.488;10.006;2022-12-07T12:08:40;8.23;;;3.50;;
2558;SDS011;1289;53.488;10.006;2022-12-07T12:11:13;6.23;;;3.03;;
2558;SDS011;1289;53.488;10.006;2022-12-07T12:13:54;4.97;;;3.20;;
2558;SDS011;1289;53.488;10.006;2022-12-07T12:16:38;3.00;;;2.80;;
2558;SDS011;1289;53.488;10.006;2022-12-07T12:19:18;7.00;;;3.20;;
2558;SDS011;1289;53.488;10.006;2022-12-07T12:21:53;3.00;;;2.80;;
2558;SDS011;1289;53.488;10.006;2022-12-07T12:24:22;4.50;;;3.23;;
2558;SDS011;1289;53.488;10.006;2022-12-07T12:26:51;3.73;;;3.30;;
2558;SDS011;1289;53.488;10.006;2022-12-07T12:29:19;3.53;;;2.83;;
2558;SDS011;1289;53.488;10.006;2022-12-07T12:32:03;3.67;;;3.27;;
2558;SDS011;1289;53.488;10.006;2022-12-07T12:34:33;3.43;;;3.23;;
2558;SDS011;1289;53.488;10.006;2022-12-07T12:37:17;3.40;;;3.10;;
2558;SDS011;1289;53.488;10.006;2022-12-07T12:55:19;6.30;;;3.73;;
2558;SDS011;1289;53.488;10.006;2022-12-07T12:58:25;6.53;;;4.60;;
2558;SDS011;1289;53.488;10.006;2022-12-07T13:04:13;6.70;;;3.80;;
2558;SDS011;1289;53.488;10.006;2022-12-07T13:06:44;6.87;;;4.43;;
2558;SDS011;1289;53.488;10.006;2022-12-07T13:09:17;5.80;;;3.37;;
2558;SDS011;1289;53.488;10.006;2022-12-07T13:11:48;6.57;;;3.10;;
2558;SDS011;1289;53.488;10.006;2022-12-07T13:20:46;5.27;;;4.03;;
2558;SDS011;1289;53.488;10.006;2022-12-07T13:23:14;3.83;;;3.40;;
2558;SDS011;1289;53.488;10.006;2022-12-07T13:25:46;4.87;;;3.57;;
2558;SDS011;1289;53.488;10.006;2022-12-07T13:28:17;5.53;;;4.03;;
2558;SDS011;1289;53.488;10.006;2022-12-07T13:30:46;7.20;;;3.90;;
2558;SDS011;1289;53.488;10.006;2022-12-07T13:33:17;3.63;;;3.33;;
2558;SDS011;1289;53.488;10.006;2022-12-07T13:35:45;5.97;;;3.70;;
2558;SDS011;1289;53.488;10.006;2022-12-07T13:38:22;3.43;;;3.00;;
2558;SDS011;1289;53.488;10.006;2022-12-07T13:41:01;4.33;;;3.67;;
2558;SDS011;1289;53.488;10.006;2022-12-07T13:43:31;6.27;;;3.60;;
2558;SDS011;1289;53.488;10.006;2022-12-07T13:46:08;3.83;;;3.50;;
2558;SDS011;1289;53.488;10.006;2022-12-07T13:48:43;7.20;;;5.03;;
2558;SDS011;1289;53.488;10.006;2022-12-07T13:51:16;3.87;;;3.47;;
2558;SDS011;1289;53.488;10.006;2022-12-07T13:53:46;4.70;;;3.37;;
2558;SDS011;1289;53.488;10.006;2022-12-07T13:56:13;4.53;;;3.13;;
2558;SDS011;1289;53.488;10.006;2022-12-07T13:58:42;5.40;;;3.33;;
2558;SDS011;1289;53.488;10.006;2022-12-07T14:01:08;4.60;;;3.40;;
2558;SDS011;1289;53.488;10.006;2022-12-07T14:03:35;6.67;;;3.37;;
2558;SDS011;1289;53.488;10.006;2022-12-07T14:06:05;10.83;;;4.17;;
2558;SDS011;1289;53.488;10.006;2022-12-07T14:08:33;7.50;;;3.83;;
2558;SDS011;1289;53.488;10.006;2022-12-07T14:11:00;4.60;;;3.60;;
2558;SDS011;1289;53.488;10.006;2022-12-07T14:13:29;5.40;;;3.30;;
2558;SDS011;1289;53.488;10.006;2022-12-07T14:16:00;7.60;;;3.60;;
2558;SDS011;1289;53.488;10.006;2022-12-07T14:18:28;4.43;;;3.40;;
2558;SDS011;1289;53.488;10.006;2022-12-07T14:21:03;6.17;;;3.70;;
2558;SDS011;1289;53.488;10.006;2022-12-07T14:23:30;6.43;;;4.20;;
2558;SDS011;1289;53.488;10.006;2022-12-07T14:26:04;6.37;;;4.07;;
2558;SDS011;1289;53.488;10.006;2022-12-07T14:28:33;4.70;;;3.57;;
2558;SDS011;1289;53.488;10.006;2022-12-07T14:31:02;7.10;;;3.80;;
2558;SDS011;1289;53.488;10.006;2022-12-07T14:33:29;5.30;;;3.27;;
2558;SDS011;1289;53.488;10.006;2022-12-07T14:35:56;4.00;;;3.33;;
2558;SDS011;1289;53.488;10.006;2022-12-07T14:38:23;9.30;;;3.60;;
2558;SDS011;1289;53.488;10.006;2022-12-07T14:40:50;4.80;;;3.33;;
2558;SDS011;1289;53.488;10.006;2022-12-07T14:43:17;4.37;;;3.63;;
2558;SDS011;1289;53.488;10.006;2022-12-07T14:45:45;5.13;;;4.60;;
2558;SDS011;1289;53.488;10.006;2022-12-07T14:48:14;5.67;;;2.80;;
2558;SDS011;1289;53.488;10.006;2022-12-07T14:50:42;4.80;;;3.00;;
2558;SDS011;1289;53.488;10.006;2022-12-07T14:53:12;6.57;;;2.90;;
2558;SDS011;1289;53.488;10.006;2022-12-07T14:55:39;3.70;;;3.00;;
2558;SDS011;1289;53.488;10.006;2022-12-07T14:58:07;3.23;;;3.00;;
2558;SDS011;1289;53.488;10.006;2022-12-07T15:00:38;7.20;;;3.70;;
2558;SDS011;1289;53.488;10.006;2022-12-07T15:03:05;3.80;;;3.10;;
2558;SDS011;1289;53.488;10.006;2022-12-07T15:05:33;6.43;;;2.80;;
2558;SDS011;1289;53.488;10.006;2022-12-07T15:08:00;5.23;;;3.13;;
2558;SDS011;1289;53.488;10.006;2022-12-07T15:10:28;5.33;;;3.60;;
2558;SDS011;1289;53.488;10.006;2022-12-07T15:12:56;5.23;;;3.13;;
2558;SDS011;1289;53.488;10.006;2022-12-07T15:15:44;3.13;;;2.90;;
2558;SDS011;1289;53.488;10.006;2022-12-07T15:18:11;3.30;;;3.00;;
2558;SDS011;1289;53.488;10.006;2022-12-07T15:20:38;3.83;;;3.23;;
2558;SDS011;1289;53.488;10.006;2022-12-07T15:23:07;6.67;;;3.93;;
2558;SDS011;1289;53.488;10.006;2022-12-07T15:25:33;3.57;;;3.23;;
2558;SDS011;1289;53.488;10.006;2022-12-07T15:28:00;7.60;;;3.70;;
2558;SDS011;1289;53.488;10.006;2022-12-07T15:30:27;5.10;;;3.30;;
2558;SDS011;1289;53.488;10.006;2022-12-07T15:32:53;3.10;;;2.90;;
2558;SDS011;1289;53.488;10.006;2022-12-07T15:35:20;6.17;;;3.10;;
2558;SDS011;1289;53.488;10.006;2022-12-07T15:37:48;9.80;;;3.00;;
2558;SDS011;1289;53.488;10.006;2022-12-07T15:40:15;5.63;;;3.40;;
2558;SDS011;1289;53.488;10.006;2022-12-07T15:42:41;3.17;;;2.87;;
2558;SDS011;1289;53.488;10.006;2022-12-07T15:45:08;3.17;;;2.97;;
2558;SDS011;1289;53.488;10.006;2022-12-07T15:47:36;3.07;;;2.87;;
2558;SDS011;1289;53.488;10.006;2022-12-07T15:50:04;4.27;;;2.97;;
2558;SDS011;1289;53.488;10.006;2022-12-07T15:52:33;4.80;;;3.13;;
2558;SDS011;1289;53.488;10.006;2022-12-07T15:55:01;5.30;;;3.53;;
2558;SDS011;1289;53.488;10.006;2022-12-07T15:57:28;3.90;;;3.00;;
2558;SDS011;1289;53.488;10.006;2022-12-07T15:59:55;3.40;;;3.10;;
2558;SDS011;1289;53.488;10.006;2022-12-07T16:02:23;6.33;;;3.87;;
2558;SDS011;1289;53.488;10.006;2022-12-07T16:04:50;5.27;;;3.73;;
2558;SDS011;1289;53.488;10.006;2022-12-07T16:07:16;3.83;;;3.00;;
2558;SDS011;1289;53.488;10.006;2022-12-07T16:09:43;3.73;;;3.10;;
2558;SDS011;1289;53.488;10.006;2022-12-07T16:12:12;4.23;;;3.30;;
2558;SDS011;1289;53.488;10.006;2022-12-07T16:14:39;4.60;;;3.53;;
2558;SDS011;1289;53.488;10.006;2022-12-07T16:17:07;3.67;;;3.33;;
2558;SDS011;1289;53.488;10.006;2022-12-07T16:19:34;3.40;;;3.10;;
2558;SDS011;1289;53.488;10.006;2022-12-07T16:22:01;3.93;;;3.50;;
2558;SDS011;1289;53.488;10.006;2022-12-07T16:24:29;5.53;;;3.60;;
2558;SDS011;1289;53.488;10.006;2022-12-07T16:26:55;3.83;;;3.40;;
2558;SDS011;1289;53.488;10.006;2022-12-07T16:29:23;3.43;;;3.13;;
2558;SDS011;1289;53.488;10.006;2022-12-07T16:31:50;7.83;;;4.33;;
2558;SDS011;1289;53.488;10.006;2022-12-07T16:34:17;5.73;;;3.70;;
2558;SDS011;1289;53.488;10.006;2022-12-07T16:36:45;3.87;;;3.43;;
2558;SDS011;1289;53.488;10.006;2022-12-07T16:39:11;3.63;;;3.40;;
2558;SDS011;1289;53.488;10.006;2022-12-07T16:41:38;8.37;;;3.60;;
2558;SDS011;1289;53.488;10.006;2022-12-07T16:44:06;8.33;;;3.87;;
2558;SDS011;1289;53.488;10.006;2022-12-07T16:46:35;8.13;;;3.47;;
2558;SDS011;1289;53.488;10.006;2022-12-07T16:49:02;7.03;;;3.67;;
2558;SDS011;1289;53.488;10.006;2022-12-07T16:51:29;3.93;;;3.43;;
2558;SDS011;1289;53.488;10.006;2022-12-07T16:53:56;3.70;;;3.40;;
2558;SDS011;1289;53.488;10.006;2022-12-07T16:56:23;6.13;;;3.97;;
2558;SDS011;1289;53.488;10.006;2022-12-07T16:58:51;5.57;;;3.40;;
2558;SDS011;1289;53.488;10.006;2022-12-07T17:01:18;4.90;;;3.37;;
2558;SDS011;1289;53.488;10.006;2022-12-07T17:03:48;4.70;;;3.63;;
2558;SDS011;1289;53.488;10.006;2022-12-07T17:06:15;6.03;;;4.20;;
2558;SDS011;1289;53.488;10.006;2022-12-07T17:08:43;5.13;;;3.73;;
2558;SDS011;1289;53.488;10.006;2022-12-07T17:11:10;6.17;;;4.20;;
2558;SDS011;1289;53.488;10.006;2022-12-07T17:13:37;6.27;;;3.70;;
2558;SDS011;1289;53.488;10.006;2022-12-07T17:16:21;3.60;;;3.30;;
2558;SDS011;1289;53.488;10.006;2022-12-07T17:18:50;4.20;;;3.80;;
2558;SDS011;1289;53.488;10.006;2022-12-07T17:21:17;4.80;;;4.33;;
2558;SDS011;1289;53.488;10.006;2022-12-07T17:23:44;10.67;;;5.00;;
2558;SDS011;1289;53.488;10.006;2022-12-07T17:26:14;6.47;;;4.60;;
2558;SDS011;1289;53.488;10.006;2022-12-07T17:28:42;8.27;;;4.77;;
2558;SDS011;1289;53.488;10.006;2022-12-07T17:31:09;5.33;;;4.00;;
2558;SDS011;1289;53.488;10.006;2022-12-07T17:33:37;4.00;;;3.60;;
2558;SDS011;1289;53.488;10.006;2022-12-07T17:36:10;5.10;;;4.50;;
2558;SDS011;1289;53.488;10.006;2022-12-07T17:38:37;8.67;;;4.07;;
2558;SDS011;1289;53.488;10.006;2022-12-07T17:41:08;7.33;;;4.70;;
2558;SDS011;1289;53.488;10.006;2022-12-07T17:43:35;4.67;;;4.27;;
2558;SDS011;1289;53.488;10.006;2022-12-07T17:46:05;4.37;;;4.07;;
2558;SDS011;1289;53.488;10.006;2022-12-07T17:48:32;4.70;;;4.30;;
2558;SDS011;1289;53.488;10.006;2022-12-07T17:50:59;6.50;;;4.77;;
2558;SDS011;1289;53.488;10.006;2022-12-07T17:53:44;7.83;;;4.80;;
2558;SDS011;1289;53.488;10.006;2022-12-07T17:56:14;4.80;;;4.30;;
2558;SDS011;1289;53.488;10.006;2022-12-07T17:58:40;7.17;;;4.90;;
2558;SDS011;1289;53.488;10.006;2022-12-07T18:01:07;5.20;;;4.70;;
2558;SDS011;1289;53.488;10.006;2022-12-07T18:03:34;8.00;;;5.50;;
2558;SDS011;1289;53.488;10.006;2022-12-07T18:06:00;12.40;;;4.60;;
2558;SDS011;1289;53.488;10.006;2022-12-07T18:08:27;7.07;;;4.60;;
2558;SDS011;1289;53.488;10.006;2022-12-07T18:10:58;6.13;;;4.50;;
2558;SDS011;1289;53.488;10.006;2022-12-07T18:13:25;5.23;;;4.77;;
2558;SDS011;1289;53.488;10.006;2022-12-07T18:16:04;7.73;;;5.87;;
2558;SDS011;1289;53.488;10.006;2022-12-07T18:18:31;11.17;;;6.83;;
2558;SDS011;1289;53.488;10.006;2022-12-07T18:21:00;6.63;;;4.63;;
2558;SDS011;1289;53.488;10.006;2022-12-07T18:23:28;6.10;;;5.23;;
2558;SDS011;1289;53.488;10.006;2022-12-07T18:25:54;6.87;;;5.90;;
2558;SDS011;1289;53.488;10.006;2022-12-07T18:28:22;7.73;;;5.53;;